CheckWX is a tool to help pilots better visualize weather data.  It is not intended as a substitute for an official pre-flight weather briefing.

09:23:34 UTC

HTDA TAF
Julius Nyerere International Airport
Dar es Salaam, Tanzania
TAF HTDA 110500Z 1106/1212 17010KT 9999 BKN018 PROB40 TEMPO 1108/1115 SHRA FEW025CB BECMG 1020/1023 SCT012

Jul-10@
20:00 UTC

Jul-10 @ 20:00 UTC

Jul-12@
12:00 UTC

Jul-12 @ 12:00 UTC

BECMG 1020/1023 SCT012

Becoming

Becoming Conditions expected by Fri, Jul 10, 2020 @ 23:00 UTC

Wind
  • 170° at 10 KTS
Cloud Levels
  • Scattered at 1,200' AGL

Jul-11@
06:00 UTC

Jul-11 @ 06:00 UTC

Jul-12@
12:00 UTC

Jul-12 @ 12:00 UTC

TAF HTDA 110500Z 1106/1212 17010KT 9999 BKN018
Wind
  • 170° at 10 KTS
Cloud Levels
  • Broken at 1,800' AGL

Jul-11@
08:00 UTC

Jul-11 @ 08:00 UTC

Jul-11@
15:00 UTC

Jul-11 @ 15:00 UTC

PROB40 TEMPO 1108/1115 SHRA FEW025CB

Expired

Conditions
Showers, Rain
Cloud Levels
  • Few at 2,500' AGL